Time;durP1;ratioP1;P1;durP2;ratioP2;P2;SDS_P1;SDS_P2;PMS_P1;PMS_P2;Temp;Humidity;BMP_temperature;BMP_pressure;BME280_temperature;BME280_humidity;BME280_pressure;Samples;Min_cycle;Max_cycle;Signal;HPM_P1;HPM_P2
2023/11/21 00:00:45;;;;;;;;;;;;;;;;;;5092888;28;19924;-61
2023/11/21 00:03:14;;;;;;;;;;;;;;;;;;5092169;28;20014;-60
2023/11/21 00:05:41;;;;;;;;;;;;;;;;;;5091563;28;19928;-60
2023/11/21 00:08:07;;;;;;;;;;;;;;;;;;5087949;28;19928;-60
2023/11/21 00:10:33;;;;;;;;;;;;;;;;;;5088606;28;19924;-61
2023/11/21 00:12:58;;;;;;;;;;;;;;;;;;5091780;28;19975;-60
2023/11/21 00:15:25;;;;;;;;;;;;;;;;;;5090404;28;19924;-63
2023/11/21 00:17:51;;;;;;;;;;;;;;;;;;5090552;28;20647;-61
2023/11/21 00:20:16;;;;;;;;;;;;;;;;;;5084294;28;19969;-61
2023/11/21 00:22:42;;;;;;;;;;;;;;;;;;5068640;28;19973;-61
2023/11/21 00:25:08;;;;;;;;;;;;;;;;;;5085843;28;20266;-64
2023/11/21 00:27:34;;;;;;;;;;;;;;;;;;5069768;28;19928;-60
2023/11/21 00:30:00;;;;;;;;;;;;;;;;;;5088326;28;19928;-61
2023/11/21 00:32:26;;;;;;;;;;;;;;;;;;5087305;28;20538;-61
2023/11/21 00:34:52;;;;;;;;;;;;;;;;;;5085364;28;19924;-61
2023/11/21 00:37:18;;;;;;;;;;;;;;;;;;5087824;28;20051;-61
2023/11/21 00:39:44;;;;;;;;;;;;;;;;;;5067685;28;20003;-61
2023/11/21 00:42:10;;;;;;;;;;;;;;;;;;5082499;28;19927;-61
2023/11/21 00:44:36;;;;;;;;;;;;;;;;;;5091232;28;19922;-61
2023/11/21 00:47:02;;;;;;;;;;;;;;;;;;5086811;28;20560;-61
2023/11/21 00:49:28;;;;;;;;;;;;;;;;;;5089553;28;19960;-61
2023/11/21 00:51:55;;;;;;;;;;;;;;;;;;5088891;28;19979;-60
2023/11/21 00:54:21;;;;;;;;;;;;;;;;;;5081275;28;20013;-60
2023/11/21 00:56:49;;;;;;;;;;;;;;;;;;5089457;28;20341;-60
2023/11/21 00:59:15;;;;;;;;;;;;;;;;;;5087152;28;19993;-60
2023/11/21 01:01:41;;;;;;;;;;;;;;;;;;5088656;28;20299;-60
2023/11/21 01:04:07;;;;;;;;;;;;;;;;;;5087383;28;19924;-60
2023/11/21 01:06:33;;;;;;;;;;;;;;;;;;5089588;28;19970;-60
2023/11/21 01:08:59;;;;;;;;;;;;;;;;;;5086814;28;20401;-60
2023/11/21 01:11:26;;;;;;;;;;;;;;;;;;5060266;28;19989;-60
2023/11/21 01:13:53;;;;;;;;;;;;;;;;;;5085600;28;20267;-60
2023/11/21 01:16:19;;;;;;;;;;;;;;;;;;5087428;28;19971;-60
2023/11/21 01:18:45;;;;;;;;;;;;;;;;;;5084395;28;19967;-60
2023/11/21 01:21:11;;;;;;;;;;;;;;;;;;5071848;28;19946;-61
2023/11/21 01:23:37;;;;;;;;;;;;;;;;;;5087777;28;20289;-61
2023/11/21 01:26:03;;;;;;;;;;;;;;;;;;5079727;28;19928;-61
2023/11/21 01:28:29;;;;;;;;;;;;;;;;;;5082973;28;19955;-61
2023/11/21 01:30:56;;;;;;;;;;;;;;;;;;5086502;28;19928;-60
2023/11/21 01:33:22;;;;;;;;;;;;;;;;;;5079870;28;20007;-59
2023/11/21 01:35:48;;;;;;;;;;;;;;;;;;5070655;28;19920;-60
2023/11/21 01:38:15;;;;;;;;;;;;;;;;;;5087192;28;19951;-60
2023/11/21 01:40:40;;;;;;;;;;;;;;;;;;5086432;28;19928;-60
2023/11/21 01:43:08;;;;;;;;;;;;;;;;;;5088283;28;19932;-60
2023/11/21 01:45:34;;;;;;;;;;;;;;;;;;5082187;28;19959;-60
2023/11/21 01:48:00;;;;;;;;;;;;;;;;;;5089945;28;19970;-60
2023/11/21 01:50:26;;;;;;;;;;;;;;;;;;5091002;28;20410;-60
2023/11/21 01:52:52;;;;;;;;;;;;;;;;;;5084557;28;19945;-60
2023/11/21 01:55:18;;;;;;;;;;;;;;;;;;5088486;28;19943;-60
2023/11/21 01:57:44;;;;;;;;;;;;;;;;;;5089920;28;19924;-60
2023/11/21 02:00:16;;;;;;;;;;;;;;;;;;5089920;28;20946;-60
2023/11/21 02:02:43;;;;;;;;;;;;;;;;;;5086588;28;19920;-59
2023/11/21 02:05:09;;;;;;;;;;;;;;;;;;5093840;28;19924;-59
2023/11/21 02:07:35;;;;;;;;;;;;;;;;;;5093823;28;19927;-59
2023/11/21 02:10:01;;;;;;;;;;;;;;;;;;5093989;28;19920;-61
2023/11/21 02:12:27;;;;;;;;;;;;;;;;;;5082446;28;19927;-60
2023/11/21 02:14:53;;;;;;;;;;;;;;;;;;5088765;28;19928;-60
2023/11/21 02:17:20;;;;;;;;;;;;;;;;;;5086864;28;19927;-59
2023/11/21 02:19:47;;;;;;;;;;;;;;;;;;5091198;28;19931;-60
2023/11/21 02:22:12;;;;;;;;;;;;;;;;;;5074696;28;19920;-60
2023/11/21 02:24:38;;;;;;;;;;;;;;;;;;5088280;28;19928;-60
2023/11/21 02:27:06;;;;;;;;;;;;;;;;;;5057337;28;19935;-60
2023/11/21 02:29:32;;;;;;;;;;;;;;;;;;5091620;28;20010;-60
2023/11/21 02:31:58;;;;;;;;;;;;;;;;;;5087565;28;20011;-60
2023/11/21 02:34:24;;;;;;;;;;;;;;;;;;5086158;28;19928;-61
2023/11/21 02:36:51;;;;;;;;;;;;;;;;;;5086234;28;20449;-60
2023/11/21 02:39:16;;;;;;;;;;;;;;;;;;5087285;28;19975;-61
2023/11/21 02:41:42;;;;;;;;;;;;;;;;;;5093267;28;19963;-61
2023/11/21 02:44:08;;;;;;;;;;;;;;;;;;5086599;28;19946;-60
2023/11/21 02:46:34;;;;;;;;;;;;;;;;;;5087059;28;19927;-61
2023/11/21 02:49:00;;;;;;;;;;;;;;;;;;5092246;28;19928;-61
2023/11/21 02:51:26;;;;;;;;;;;;;;;;;;5086349;28;19977;-60
2023/11/21 02:53:52;;;;;;;;;;;;;;;;;;5089632;28;19941;-61
2023/11/21 02:56:18;;;;;;;;;;;;;;;;;;5092589;28;20039;-61
2023/11/21 02:58:44;;;;;;;;;;;;;;;;;;5092760;28;19924;-61
2023/11/21 03:01:10;;;;;;;;;;;;;;;;;;5092922;28;19959;-61
2023/11/21 03:03:38;;;;;;;;;;;;;;;;;;5090747;28;19920;-61
2023/11/21 03:06:04;;;;;;;;;;;;;;;;;;5085461;28;20496;-61
2023/11/21 03:08:30;;;;;;;;;;;;;;;;;;5088310;28;19935;-61
2023/11/21 03:10:56;;;;;;;;;;;;;;;;;;5090516;28;19920;-61
2023/11/21 03:13:22;;;;;;;;;;;;;;;;;;5092913;28;20461;-61
2023/11/21 03:15:48;;;;;;;;;;;;;;;;;;5090860;28;19927;-61
2023/11/21 03:18:14;;;;;;;;;;;;;;;;;;5089384;28;20433;-61
2023/11/21 03:20:40;;;;;;;;;;;;;;;;;;5067947;28;20007;-61
2023/11/21 03:23:06;;;;;;;;;;;;;;;;;;5073015;28;19920;-61
2023/11/21 03:25:32;;;;;;;;;;;;;;;;;;5085308;28;20289;-61
2023/11/21 03:27:57;;;;;;;;;;;;;;;;;;5088799;28;19924;-61
2023/11/21 03:30:23;;;;;;;;;;;;;;;;;;5088190;28;19924;-61
2023/11/21 03:32:49;;;;;;;;;;;;;;;;;;5089242;28;19927;-61
2023/11/21 03:35:15;;;;;;;;;;;;;;;;;;5087678;28;20298;-61
2023/11/21 03:37:42;;;;;;;;;;;;;;;;;;5089832;28;19924;-61
2023/11/21 03:40:09;;;;;;;;;;;;;;;;;;5083309;28;20354;-61
2023/11/21 03:42:35;;;;;;;;;;;;;;;;;;5086141;28;19967;-61
2023/11/21 03:45:00;;;;;;;;;;;;;;;;;;5090870;28;20080;-61
2023/11/21 03:47:26;;;;;;;;;;;;;;;;;;5090573;28;19920;-61
2023/11/21 03:49:52;;;;;;;;;;;;;;;;;;5088335;28;20401;-61
2023/11/21 03:52:18;;;;;;;;;;;;;;;;;;5081835;28;19931;-61
2023/11/21 03:54:44;;;;;;;;;;;;;;;;;;5084635;28;20018;-61
2023/11/21 03:57:10;;;;;;;;;;;;;;;;;;5090526;28;20442;-61
2023/11/21 03:59:36;;;;;;;;;;;;;;;;;;5091698;28;19920;-61
2023/11/21 04:02:02;;;;;;;;;;;;;;;;;;5083964;28;20063;-61
2023/11/21 04:04:28;;;;;;;;;;;;;;;;;;5086181;28;20391;-61
2023/11/21 04:06:54;;;;;;;;;;;;;;;;;;5088039;28;19920;-61
2023/11/21 04:09:20;;;;;;;;;;;;;;;;;;5084224;28;19927;-62
2023/11/21 04:11:46;;;;;;;;;;;;;;;;;;5079825;28;19925;-61
2023/11/21 04:14:12;;;;;;;;;;;;;;;;;;5090163;28;19924;-61
2023/11/21 04:16:38;;;;;;;;;;;;;;;;;;5087013;28;19927;-61
2023/11/21 04:19:04;;;;;;;;;;;;;;;;;;5087805;28;20369;-61
2023/11/21 04:21:29;;;;;;;;;;;;;;;;;;5088670;28;19924;-61
2023/11/21 04:23:55;;;;;;;;;;;;;;;;;;5089282;28;19927;-61
2023/11/21 04:26:21;;;;;;;;;;;;;;;;;;5066636;28;19920;-61
2023/11/21 04:28:47;;;;;;;;;;;;;;;;;;5090178;28;19931;-61
2023/11/21 04:31:13;;;;;;;;;;;;;;;;;;5083143;28;19977;-61
2023/11/21 04:33:39;;;;;;;;;;;;;;;;;;5088738;28;19924;-61
2023/11/21 04:36:05;;;;;;;;;;;;;;;;;;5087906;28;20338;-61
2023/11/21 04:38:31;;;;;;;;;;;;;;;;;;5085159;28;20010;-61
2023/11/21 04:40:57;;;;;;;;;;;;;;;;;;5084200;28;19924;-60
2023/11/21 04:43:22;;;;;;;;;;;;;;;;;;5085840;28;20373;-60
2023/11/21 04:45:48;;;;;;;;;;;;;;;;;;5081171;28;19986;-61
2023/11/21 04:48:14;;;;;;;;;;;;;;;;;;5087525;28;19920;-61
2023/11/21 04:50:40;;;;;;;;;;;;;;;;;;5087327;28;20001;-61
2023/11/21 04:53:06;;;;;;;;;;;;;;;;;;5081183;28;19924;-60
2023/11/21 04:55:32;;;;;;;;;;;;;;;;;;5086346;28;19920;-61
2023/11/21 04:57:58;;;;;;;;;;;;;;;;;;5081124;28;19934;-61
2023/11/21 05:00:24;;;;;;;;;;;;;;;;;;5083673;28;19928;-61
2023/11/21 05:02:50;;;;;;;;;;;;;;;;;;5088279;28;19980;-61
2023/11/21 05:05:16;;;;;;;;;;;;;;;;;;5087729;28;19924;-61
2023/11/21 05:07:42;;;;;;;;;;;;;;;;;;5088930;28;19927;-61
2023/11/21 05:10:11;;;;;;;;;;;;;;;;;;5081052;28;19924;-61
2023/11/21 05:12:37;;;;;;;;;;;;;;;;;;5092923;28;19968;-61
2023/11/21 05:15:03;;;;;;;;;;;;;;;;;;5091524;28;19967;-61
2023/11/21 05:17:29;;;;;;;;;;;;;;;;;;5088466;28;19958;-61
2023/11/21 05:19:55;;;;;;;;;;;;;;;;;;5093163;28;19924;-61
2023/11/21 05:22:21;;;;;;;;;;;;;;;;;;5090772;28;19920;-61
2023/11/21 05:24:47;;;;;;;;;;;;;;;;;;5089791;28;20456;-61
2023/11/21 05:27:13;;;;;;;;;;;;;;;;;;5089244;28;19935;-62
2023/11/21 05:29:39;;;;;;;;;;;;;;;;;;5091974;28;19920;-62
2023/11/21 05:32:04;;;;;;;;;;;;;;;;;;5087420;28;19927;-61
2023/11/21 05:34:30;;;;;;;;;;;;;;;;;;5065614;28;19975;-61
2023/11/21 05:36:58;;;;;;;;;;;;;;;;;;5087531;28;20351;-61
2023/11/21 05:39:24;;;;;;;;;;;;;;;;;;5090366;28;19959;-61
2023/11/21 05:41:50;;;;;;;;;;;;;;;;;;5068345;28;19935;-60
2023/11/21 05:44:16;;;;;;;;;;;;;;;;;;5093605;28;19920;-60
2023/11/21 05:46:43;;;;;;;;;;;;;;;;;;5073434;28;20388;-60
2023/11/21 05:49:09;;;;;;;;;;;;;;;;;;5093225;28;20305;-62
2023/11/21 05:51:34;;;;;;;;;;;;;;;;;;5086635;28;19920;-61
2023/11/21 05:54:00;;;;;;;;;;;;;;;;;;5088045;28;20007;-61
2023/11/21 05:56:26;;;;;;;;;;;;;;;;;;5088843;28;19924;-61
2023/11/21 05:58:53;;;;;;;;;;;;;;;;;;5088448;28;19920;-61
2023/11/21 06:01:18;;;;;;;;;;;;;;;;;;5091268;28;19920;-61
2023/11/21 06:03:45;;;;;;;;;;;;;;;;;;5089105;28;19927;-61
2023/11/21 06:06:11;;;;;;;;;;;;;;;;;;5088680;28;20292;-61
2023/11/21 06:08:37;;;;;;;;;;;;;;;;;;5088640;28;19920;-61
2023/11/21 06:11:03;;;;;;;;;;;;;;;;;;5088689;28;19927;-61
2023/11/21 06:13:29;;;;;;;;;;;;;;;;;;5079723;28;19935;-61
2023/11/21 06:15:55;;;;;;;;;;;;;;;;;;5088507;28;20304;-61
2023/11/21 06:18:20;;;;;;;;;;;;;;;;;;5088646;28;19924;-61
2023/11/21 06:20:46;;;;;;;;;;;;;;;;;;5086149;28;20002;-61
2023/11/21 06:23:13;;;;;;;;;;;;;;;;;;5093022;28;19934;-61
2023/11/21 06:25:40;;;;;;;;;;;;;;;;;;5092368;28;20424;-61
2023/11/21 06:28:06;;;;;;;;;;;;;;;;;;5071079;28;19924;-61
2023/11/21 06:30:32;;;;;;;;;;;;;;;;;;5089591;28;20374;-61
2023/11/21 06:32:59;;;;;;;;;;;;;;;;;;5085163;28;19927;-61
2023/11/21 06:35:27;;;;;;;;;;;;;;;;;;5092888;28;19967;-61
2023/11/21 06:37:53;;;;;;;;;;;;;;;;;;5089483;28;19920;-61
2023/11/21 06:40:19;;;;;;;;;;;;;;;;;;5073950;28;20039;-61
2023/11/21 06:42:46;;;;;;;;;;;;;;;;;;5086487;28;19924;-61
2023/11/21 06:45:13;;;;;;;;;;;;;;;;;;5091422;28;20285;-61
2023/11/21 06:47:39;;;;;;;;;;;;;;;;;;5091700;28;19928;-61
2023/11/21 06:50:06;;;;;;;;;;;;;;;;;;5092729;28;19924;-61
2023/11/21 06:52:32;;;;;;;;;;;;;;;;;;5090226;28;19924;-61
2023/11/21 06:54:58;;;;;;;;;;;;;;;;;;5093093;28;20438;-61
2023/11/21 06:57:24;;;;;;;;;;;;;;;;;;5079658;28;19931;-61
2023/11/21 06:59:50;;;;;;;;;;;;;;;;;;5087611;28;20014;-61
2023/11/21 07:02:18;;;;;;;;;;;;;;;;;;5090136;28;19924;-63
2023/11/21 07:04:44;;;;;;;;;;;;;;;;;;5085858;28;19924;-61
2023/11/21 07:07:09;;;;;;;;;;;;;;;;;;5083411;28;19930;-61
2023/11/21 07:09:35;;;;;;;;;;;;;;;;;;5091545;28;21092;-61
2023/11/21 07:12:03;;;;;;;;;;;;;;;;;;5092559;28;19927;-60
2023/11/21 07:14:29;;;;;;;;;;;;;;;;;;5092956;28;20019;-61
2023/11/21 07:16:56;;;;;;;;;;;;;;;;;;5068146;28;20018;-60
2023/11/21 07:19:22;;;;;;;;;;;;;;;;;;5090382;28;19927;-61
2023/11/21 07:21:50;;;;;;;;;;;;;;;;;;5091845;28;20469;-60
2023/11/21 07:24:16;;;;;;;;;;;;;;;;;;5092856;28;19951;-61
2023/11/21 07:26:42;;;;;;;;;;;;;;;;;;5092651;28;20305;-61
2023/11/21 07:29:08;;;;;;;;;;;;;;;;;;5092696;28;19931;-60
2023/11/21 07:31:34;;;;;;;;;;;;;;;;;;5093103;28;19920;-61
2023/11/21 07:34:00;;;;;;;;;;;;;;;;;;5091917;28;20352;-61
2023/11/21 07:36:26;;;;;;;;;;;;;;;;;;5082107;28;19946;-61
2023/11/21 07:38:52;;;;;;;;;;;;;;;;;;5085111;28;20381;-61
2023/11/21 07:41:18;;;;;;;;;;;;;;;;;;5082098;28;19927;-60
2023/11/21 07:43:44;;;;;;;;;;;;;;;;;;5067728;28;19924;-60
2023/11/21 07:46:10;;;;;;;;;;;;;;;;;;5071052;28;19930;-60
2023/11/21 07:48:36;;;;;;;;;;;;;;;;;;5066418;28;19970;-60
2023/11/21 07:51:03;;;;;;;;;;;;;;;;;;5081806;28;19920;-60
2023/11/21 07:53:30;;;;;;;;;;;;;;;;;;5092355;28;20415;-60
2023/11/21 07:55:55;;;;;;;;;;;;;;;;;;5079989;28;20050;-60
2023/11/21 07:58:21;;;;;;;;;;;;;;;;;;5085510;28;20018;-60
2023/11/21 08:00:47;;;;;;;;;;;;;;;;;;5082491;28;19932;-60
2023/11/21 08:03:13;;;;;;;;;;;;;;;;;;5069528;28;20529;-60
2023/11/21 08:05:39;;;;;;;;;;;;;;;;;;5064623;28;19924;-61
2023/11/21 08:08:05;;;;;;;;;;;;;;;;;;5044882;28;19924;-60
2023/11/21 08:10:31;;;;;;;;;;;;;;;;;;5090322;28;19928;-60
2023/11/21 08:12:57;;;;;;;;;;;;;;;;;;5077080;28;19924;-60
2023/11/21 08:15:23;;;;;;;;;;;;;;;;;;5069321;28;20668;-60
2023/11/21 08:17:48;;;;;;;;;;;;;;;;;;5088721;28;19920;-60
2023/11/21 08:20:17;;;;;;;;;;;;;;;;;;5060699;28;19969;-60
2023/11/21 08:22:43;;;;;;;;;;;;;;;;;;5090283;28;19923;-61
2023/11/21 08:25:09;;;;;;;;;;;;;;;;;;5084717;28;20003;-61
2023/11/21 08:27:35;;;;;;;;;;;;;;;;;;5087212;28;20464;-61
2023/11/21 08:30:01;;;;;;;;;;;;;;;;;;5078228;28;19928;-61
2023/11/21 08:32:27;;;;;;;;;;;;;;;;;;5063095;28;20057;-60
2023/11/21 08:34:53;;;;;;;;;;;;;;;;;;5089151;28;19924;-61
2023/11/21 08:37:19;;;;;;;;;;;;;;;;;;5086158;28;20410;-61
2023/11/21 08:39:45;;;;;;;;;;;;;;;;;;5085592;28;19930;-61
2023/11/21 08:42:11;;;;;;;;;;;;;;;;;;5087073;28;19932;-60
2023/11/21 08:44:38;;;;;;;;;;;;;;;;;;5084067;28;19927;-60
2023/11/21 08:47:04;;;;;;;;;;;;;;;;;;5069200;28;19967;-60
2023/11/21 08:49:30;;;;;;;;;;;;;;;;;;5090204;28;19989;-60
2023/11/21 08:51:59;;;;;;;;;;;;;;;;;;5086261;28;19963;-60
2023/11/21 08:54:25;;;;;;;;;;;;;;;;;;5097040;22;19928;-62
2023/11/21 08:56:51;;;;;;;;;;;;;;;;;;5071909;28;20388;-63
2023/11/21 08:59:17;;;;;;;;;;;;;;;;;;5070853;28;20019;-63
2023/11/21 09:01:43;;;;;;;;;;;;;;;;;;5074371;28;20077;-63
2023/11/21 09:04:09;;;;;;;;;;;;;;;;;;5071141;28;20065;-63
2023/11/21 09:06:35;;;;;;;;;;;;;;;;;;5073480;28;19924;-63
2023/11/21 09:09:01;;;;;;;;;;;;;;;;;;5072457;28;20316;-63
2023/11/21 09:11:33;;;;;;;;;;;;;;;;;;5075101;28;19981;-63
2023/11/21 09:13:59;;;;;;;;;;;;;;;;;;5069658;28;20425;-63
2023/11/21 09:16:25;;;;;;;;;;;;;;;;;;5073279;28;20070;-63
2023/11/21 09:18:50;;;;;;;;;;;;;;;;;;5067217;28;20042;-63
2023/11/21 09:21:16;;;;;;;;;;;;;;;;;;5065012;28;19979;-63
2023/11/21 09:23:42;;;;;;;;;;;;;;;;;;5061438;28;20373;-63
2023/11/21 09:26:08;;;;;;;;;;;;;;;;;;5064943;28;19925;-63
2023/11/21 09:28:37;;;;;;;;;;;;;;;;;;5062095;28;19921;-63
2023/11/21 09:31:04;;;;;;;;;;;;;;;;;;5062078;28;19924;-63
2023/11/21 09:33:34;;;;;;;;;;;;;;;;;;5061114;28;20312;-63
2023/11/21 09:36:00;;;;;;;;;;;;;;;;;;5060430;28;19928;-63
2023/11/21 09:38:28;;;;;;;;;;;;;;;;;;5058486;28;19928;-63
2023/11/21 09:40:54;;;;;;;;;;;;;;;;;;5063622;28;19924;-63
2023/11/21 09:43:20;;;;;;;;;;;;;;;;;;5064404;28;19943;-64
2023/11/21 09:45:47;;;;;;;;;;;;;;;;;;5061265;28;20406;-63
2023/11/21 09:48:13;;;;;;;;;;;;;;;;;;5063342;28;20396;-63
2023/11/21 09:50:39;;;;;;;;;;;;;;;;;;5062953;28;19924;-64
2023/11/21 09:53:06;;;;;;;;;;;;;;;;;;5070404;28;20384;-63
2023/11/21 09:55:35;;;;;;;;;;;;;;;;;;5068728;28;20605;-64
2023/11/21 09:58:01;;;;;;;;;;;;;;;;;;5073338;28;19924;-63
2023/11/21 10:00:27;;;;;;;;;;;;;;;;;;5072258;28;19944;-63
2023/11/21 10:02:53;;;;;;;;;;;;;;;;;;5072699;28;19920;-63
2023/11/21 10:05:19;;;;;;;;;;;;;;;;;;5074374;28;19924;-63
2023/11/21 10:07:46;;;;;;;;;;;;;;;;;;5068327;28;19921;-63
2023/11/21 10:10:12;;;;;;;;;;;;;;;;;;5074208;28;20399;-64
2023/11/21 10:12:38;;;;;;;;;;;;;;;;;;5069498;28;19929;-64
2023/11/21 10:15:06;;;;;;;;;;;;;;;;;;5061873;28;19928;-64
2023/11/21 10:17:37;;;;;;;;;;;;;;;;;;5068991;28;19925;-64
2023/11/21 10:20:06;;;;;;;;;;;;;;;;;;5075474;28;19925;-63
2023/11/21 10:22:31;;;;;;;;;;;;;;;;;;5076733;28;19993;-63
2023/11/21 10:24:57;;;;;;;;;;;;;;;;;;5068599;28;20488;-63
2023/11/21 10:27:23;;;;;;;;;;;;;;;;;;5070939;28;19920;-63
2023/11/21 10:29:49;;;;;;;;;;;;;;;;;;5072938;28;19931;-63
2023/11/21 10:32:15;;;;;;;;;;;;;;;;;;5066634;28;20290;-63
2023/11/21 10:34:41;;;;;;;;;;;;;;;;;;5073629;28;20003;-63
2023/11/21 10:37:07;;;;;;;;;;;;;;;;;;5077941;28;19934;-62
2023/11/21 10:39:33;;;;;;;;;;;;;;;;;;5072863;28;19936;-63
2023/11/21 10:41:59;;;;;;;;;;;;;;;;;;5065272;28;20356;-63
2023/11/21 10:44:26;;;;;;;;;;;;;;;;;;5067501;28;19928;-63
2023/11/21 10:46:52;;;;;;;;;;;;;;;;;;5068907;28;19928;-63
2023/11/21 10:49:18;;;;;;;;;;;;;;;;;;5071486;28;19927;-63
2023/11/21 10:51:44;;;;;;;;;;;;;;;;;;5073186;28;19936;-62
2023/11/21 10:54:12;;;;;;;;;;;;;;;;;;5068715;28;19920;-63
2023/11/21 10:56:40;;;;;;;;;;;;;;;;;;5067214;28;19970;-62
2023/11/21 10:59:06;;;;;;;;;;;;;;;;;;5068833;28;19971;-63
2023/11/21 11:01:32;;;;;;;;;;;;;;;;;;5068145;28;20353;-63
2023/11/21 11:03:58;;;;;;;;;;;;;;;;;;5074934;28;19946;-63
2023/11/21 11:06:26;;;;;;;;;;;;;;;;;;5067075;28;19921;-63
2023/11/21 11:08:52;;;;;;;;;;;;;;;;;;5066135;28;19939;-63
2023/11/21 11:11:18;;;;;;;;;;;;;;;;;;5065758;28;20377;-63
2023/11/21 11:13:47;;;;;;;;;;;;;;;;;;5072424;28;19947;-62
2023/11/21 11:16:17;;;;;;;;;;;;;;;;;;5074340;28;20431;-62
2023/11/21 11:18:44;;;;;;;;;;;;;;;;;;5070915;28;20379;-63
2023/11/21 11:21:10;;;;;;;;;;;;;;;;;;5077052;28;20412;-62
2023/11/21 11:23:36;;;;;;;;;;;;;;;;;;5073606;28;19924;-62
2023/11/21 11:26:02;;;;;;;;;;;;;;;;;;5070806;28;19931;-63
2023/11/21 11:28:27;;;;;;;;;;;;;;;;;;5073251;28;19921;-63
2023/11/21 11:30:53;;;;;;;;;;;;;;;;;;5069533;28;19927;-63
2023/11/21 11:33:21;;;;;;;;;;;;;;;;;;5071238;28;19925;-63
2023/11/21 11:35:47;;;;;;;;;;;;;;;;;;5066274;28;19921;-63
2023/11/21 11:38:13;;;;;;;;;;;;;;;;;;5071052;28;19932;-63
2023/11/21 11:40:40;;;;;;;;;;;;;;;;;;5067584;28;19924;-63
2023/11/21 11:43:07;;;;;;;;;;;;;;;;;;5057397;28;19964;-63
2023/11/21 11:45:33;;;;;;;;;;;;;;;;;;5058273;28;19928;-63
2023/11/21 11:47:59;;;;;;;;;;;;;;;;;;5067869;28;19931;-63
2023/11/21 11:50:26;;;;;;;;;;;;;;;;;;5068974;28;19924;-63
2023/11/21 11:52:53;;;;;;;;;;;;;;;;;;5073032;28;19939;-63
2023/11/21 11:55:18;;;;;;;;;;;;;;;;;;5076258;28;20002;-63
2023/11/21 11:57:44;;;;;;;;;;;;;;;;;;5080493;28;19956;-63
2023/11/21 12:00:11;;;;;;;;;;;;;;;;;;5069799;28;19974;-64
2023/11/21 12:02:37;;;;;;;;;;;;;;;;;;5072843;28;20014;-63
2023/11/21 12:05:04;;;;;;;;;;;;;;;;;;5071084;28;20262;-63
2023/11/21 12:07:29;;;;;;;;;;;;;;;;;;5079530;28;19924;-63
2023/11/21 12:09:55;;;;;;;;;;;;;;;;;;5071360;28;20020;-63
2023/11/21 12:12:21;;;;;;;;;;;;;;;;;;5076692;28;19928;-63
2023/11/21 12:14:47;;;;;;;;;;;;;;;;;;5067081;28;19971;-62
2023/11/21 12:17:13;;;;;;;;;;;;;;;;;;5071469;28;20003;-63
2023/11/21 12:19:39;;;;;;;;;;;;;;;;;;5074395;28;20324;-63
2023/11/21 12:22:05;;;;;;;;;;;;;;;;;;5070828;28;19928;-63
2023/11/21 12:24:31;;;;;;;;;;;;;;;;;;5043331;28;19920;-63
2023/11/21 12:26:57;;;;;;;;;;;;;;;;;;5059368;28;19954;-63
2023/11/21 12:29:23;;;;;;;;;;;;;;;;;;5072209;28;19947;-63
2023/11/21 12:31:49;;;;;;;;;;;;;;;;;;5068730;28;19924;-63
2023/11/21 12:34:15;;;;;;;;;;;;;;;;;;5065155;28;19951;-63
2023/11/21 12:36:41;;;;;;;;;;;;;;;;;;5070353;28;20544;-63
2023/11/21 12:39:09;;;;;;;;;;;;;;;;;;5049831;28;20396;-63
2023/11/21 12:41:35;;;;;;;;;;;;;;;;;;5063957;28;19924;-63
2023/11/21 12:44:01;;;;;;;;;;;;;;;;;;5065138;28;20008;-63
2023/11/21 12:46:30;;;;;;;;;;;;;;;;;;5062744;28;19925;-63
2023/11/21 12:48:56;;;;;;;;;;;;;;;;;;5062206;28;20236;-63
2023/11/21 12:51:22;;;;;;;;;;;;;;;;;;5065288;28;19928;-63
2023/11/21 12:53:48;;;;;;;;;;;;;;;;;;5066765;28;19951;-63
2023/11/21 12:56:16;;;;;;;;;;;;;;;;;;5066029;28;19964;-63
2023/11/21 12:58:42;;;;;;;;;;;;;;;;;;5058360;28;19929;-63
2023/11/21 13:01:18;;;;;;;;;;;;;;;;;;5069671;28;19927;-63
2023/11/21 13:03:45;;;;;;;;;;;;;;;;;;5081338;28;19936;-62
2023/11/21 13:06:12;;;;;;;;;;;;;;;;;;5081666;28;20007;-62
2023/11/21 13:08:39;;;;;;;;;;;;;;;;;;5077054;28;19932;-62
2023/11/21 13:11:05;;;;;;;;;;;;;;;;;;5076083;28;20011;-62
2023/11/21 13:13:31;;;;;;;;;;;;;;;;;;5064096;28;19946;-62
2023/11/21 13:15:57;;;;;;;;;;;;;;;;;;5069253;28;19920;-63
2023/11/21 13:18:23;;;;;;;;;;;;;;;;;;5071752;28;20328;-63
2023/11/21 13:20:50;;;;;;;;;;;;;;;;;;5074938;28;19928;-63
2023/11/21 13:23:16;;;;;;;;;;;;;;;;;;5075334;28;19927;-63
2023/11/21 13:25:42;;;;;;;;;;;;;;;;;;5077462;28;19925;-63
2023/11/21 13:28:08;;;;;;;;;;;;;;;;;;5064240;28;20481;-63
2023/11/21 13:30:34;;;;;;;;;;;;;;;;;;5078076;28;19966;-63
2023/11/21 13:33:06;;;;;;;;;;;;;;;;;;5078172;28;20251;-63
2023/11/21 13:35:37;;;;;;;;;;;;;;;;;;5086427;28;19977;-63
2023/11/21 13:38:03;;;;;;;;;;;;;;;;;;5087468;28;19927;-63
2023/11/21 13:40:29;;;;;;;;;;;;;;;;;;5071812;28;19951;-64
2023/11/21 13:42:57;;;;;;;;;;;;;;;;;;5067964;28;20204;-64
2023/11/21 13:45:23;;;;;;;;;;;;;;;;;;5072426;28;19924;-63
2023/11/21 13:47:51;;;;;;;;;;;;;;;;;;5079188;28;19920;-63
2023/11/21 13:50:22;;;;;;;;;;;;;;;;;;5065108;28;20446;-63
2023/11/21 13:52:48;;;;;;;;;;;;;;;;;;5072096;28;19960;-64
2023/11/21 13:55:16;;;;;;;;;;;;;;;;;;5075234;28;19924;-63
2023/11/21 13:57:44;;;;;;;;;;;;;;;;;;5076739;28;19924;-63
2023/11/21 14:00:36;;;;;;;;;;;;;;;;;;5076626;28;19956;-63
2023/11/21 14:03:00;;;;;;;;;;;;;;;;;;5071654;28;19920;-63
2023/11/21 14:05:29;;;;;;;;;;;;;;;;;;5071439;28;20011;-63
2023/11/21 14:07:56;;;;;;;;;;;;;;;;;;5074329;28;19931;-63
2023/11/21 14:10:24;;;;;;;;;;;;;;;;;;5090190;28;19931;-64
2023/11/21 14:12:50;;;;;;;;;;;;;;;;;;5078362;28;19924;-64
2023/11/21 14:15:18;;;;;;;;;;;;;;;;;;5075142;28;19970;-63
2023/11/21 14:17:44;;;;;;;;;;;;;;;;;;5072472;28;20271;-63
2023/11/21 14:20:15;;;;;;;;;;;;;;;;;;5074448;28;19926;-63
2023/11/21 14:22:41;;;;;;;;;;;;;;;;;;5073461;28;20326;-63
2023/11/21 14:25:07;;;;;;;;;;;;;;;;;;5072933;28;19921;-63
2023/11/21 14:27:33;;;;;;;;;;;;;;;;;;5075090;28;20325;-63
2023/11/21 14:29:59;;;;;;;;;;;;;;;;;;5073205;28;20015;-62
2023/11/21 14:32:26;;;;;;;;;;;;;;;;;;5073823;28;19925;-64
2023/11/21 14:34:51;;;;;;;;;;;;;;;;;;5065811;28;20089;-64
2023/11/21 14:37:17;;;;;;;;;;;;;;;;;;5073655;28;20305;-63
2023/11/21 14:39:49;;;;;;;;;;;;;;;;;;5072828;28;19970;-63
2023/11/21 14:42:15;;;;;;;;;;;;;;;;;;5073596;28;19920;-63
2023/11/21 14:44:42;;;;;;;;;;;;;;;;;;5069983;28;19920;-63
2023/11/21 14:47:14;;;;;;;;;;;;;;;;;;5061112;28;19960;-63
2023/11/21 14:49:52;;;;;;;;;;;;;;;;;;5066910;28;19920;-63
2023/11/21 14:52:34;;;;;;;;;;;;;;;;;;5060183;28;19932;-63
2023/11/21 14:55:20;;;;;;;;;;;;;;;;;;5072669;28;19930;-63
2023/11/21 14:57:49;;;;;;;;;;;;;;;;;;5076989;28;19928;-63
2023/11/21 15:00:35;;;;;;;;;;;;;;;;;;5071875;28;19928;-63
2023/11/21 15:03:01;;;;;;;;;;;;;;;;;;5070734;28;19962;-62
2023/11/21 15:05:27;;;;;;;;;;;;;;;;;;5078908;28;20566;-62
2023/11/21 15:07:56;;;;;;;;;;;;;;;;;;5068688;28;19985;-62
2023/11/21 15:10:29;;;;;;;;;;;;;;;;;;5072563;28;19925;-63
2023/11/21 15:12:55;;;;;;;;;;;;;;;;;;5070039;28;20479;-63
2023/11/21 15:15:21;;;;;;;;;;;;;;;;;;5068888;28;19924;-63
2023/11/21 15:17:47;;;;;;;;;;;;;;;;;;5065954;28;19924;-63
2023/11/21 15:20:20;;;;;;;;;;;;;;;;;;5059023;28;19924;-63
2023/11/21 15:22:46;;;;;;;;;;;;;;;;;;5070306;28;19920;-62
2023/11/21 15:25:13;;;;;;;;;;;;;;;;;;5065635;28;19978;-62
2023/11/21 15:27:40;;;;;;;;;;;;;;;;;;5068273;28;19925;-62
2023/11/21 15:30:06;;;;;;;;;;;;;;;;;;5062071;28;19985;-62
2023/11/21 15:32:32;;;;;;;;;;;;;;;;;;5069589;28;19955;-62
2023/11/21 15:34:58;;;;;;;;;;;;;;;;;;5072434;28;19921;-63
2023/11/21 15:37:27;;;;;;;;;;;;;;;;;;5079818;28;19920;-62
2023/11/21 15:39:53;;;;;;;;;;;;;;;;;;5049298;28;20318;-62
2023/11/21 15:42:19;;;;;;;;;;;;;;;;;;5059252;28;19924;-63
2023/11/21 15:44:45;;;;;;;;;;;;;;;;;;5051194;28;19939;-63
2023/11/21 15:47:12;;;;;;;;;;;;;;;;;;5060684;28;19929;-63
2023/11/21 15:49:38;;;;;;;;;;;;;;;;;;5068644;28;19927;-63
2023/11/21 15:52:06;;;;;;;;;;;;;;;;;;5079529;28;19924;-63
2023/11/21 15:54:34;;;;;;;;;;;;;;;;;;5070450;28;19928;-63
2023/11/21 15:57:00;;;;;;;;;;;;;;;;;;5068672;28;19920;-63
2023/11/21 15:59:30;;;;;;;;;;;;;;;;;;5066068;28;19931;-63
2023/11/21 16:01:57;;;;;;;;;;;;;;;;;;5078957;28;19955;-62
2023/11/21 16:04:23;;;;;;;;;;;;;;;;;;5054272;28;19935;-63
2023/11/21 16:06:49;;;;;;;;;;;;;;;;;;5045280;28;20451;-62
2023/11/21 16:09:30;;;;;;;;;;;;;;;;;;5060129;28;20015;-62
2023/11/21 16:12:00;;;;;;;;;;;;;;;;;;5070146;28;20541;-63
2023/11/21 16:14:26;;;;;;;;;;;;;;;;;;5072420;28;19927;-62
2023/11/21 16:16:52;;;;;;;;;;;;;;;;;;5061305;28;19924;-62
2023/11/21 16:19:18;;;;;;;;;;;;;;;;;;5084250;28;19927;-62
2023/11/21 16:21:44;;;;;;;;;;;;;;;;;;5076142;28;19920;-63
2023/11/21 16:24:11;;;;;;;;;;;;;;;;;;5080958;28;20265;-63
2023/11/21 16:26:37;;;;;;;;;;;;;;;;;;5077630;28;19951;-62
2023/11/21 16:29:03;;;;;;;;;;;;;;;;;;5073594;28;19939;-63
2023/11/21 16:31:29;;;;;;;;;;;;;;;;;;5070200;28;19935;-63
2023/11/21 16:33:55;;;;;;;;;;;;;;;;;;5078331;28;19920;-63
2023/11/21 16:36:21;;;;;;;;;;;;;;;;;;5068969;28;19922;-65
2023/11/21 16:38:47;;;;;;;;;;;;;;;;;;5073563;28;19927;-64
2023/11/21 16:41:13;;;;;;;;;;;;;;;;;;5066366;28;19924;-63